createdAt,value
2017-10-18T00:00:14.153Z,99.90
2017-10-18T00:02:41.690Z,99.90
2017-10-18T00:05:09.263Z,99.90
2017-10-18T00:07:36.811Z,99.90
2017-10-18T00:10:04.369Z,99.90
2017-10-18T00:12:31.901Z,99.90
2017-10-18T00:14:59.439Z,99.90
2017-10-18T00:17:27.785Z,99.90
2017-10-18T00:19:55.334Z,99.90
2017-10-18T00:22:22.935Z,99.90
2017-10-18T00:24:50.483Z,99.90
2017-10-18T00:27:18.025Z,99.90
2017-10-18T00:29:45.609Z,99.90
2017-10-18T00:32:13.158Z,99.90
2017-10-18T00:34:40.725Z,99.90
2017-10-18T00:37:09.029Z,99.90
2017-10-18T00:39:37.374Z,99.90
2017-10-18T00:42:04.952Z,99.90
2017-10-18T00:44:32.502Z,99.90
2017-10-18T00:47:00.100Z,99.90
2017-10-18T00:49:29.429Z,99.90
2017-10-18T00:51:56.964Z,99.90
2017-10-18T00:54:25.298Z,99.90
2017-10-18T00:56:52.829Z,99.90
2017-10-18T00:59:20.423Z,99.90
2017-10-18T01:01:47.953Z,99.90
2017-10-18T01:04:15.516Z,99.90
2017-10-18T01:06:43.086Z,99.90
2017-10-18T01:09:10.638Z,99.90
2017-10-18T01:11:38.211Z,99.90
2017-10-18T01:14:05.745Z,99.90
2017-10-18T01:16:34.064Z,99.90
2017-10-18T01:19:01.640Z,99.90
2017-10-18T01:21:29.169Z,99.90
2017-10-18T01:23:56.733Z,99.90
2017-10-18T01:26:24.285Z,99.90
2017-10-18T01:28:51.841Z,99.90
2017-10-18T01:31:19.406Z,99.90
2017-10-18T01:33:46.964Z,99.90
2017-10-18T01:36:15.305Z,99.90
2017-10-18T01:38:42.844Z,99.90
2017-10-18T01:41:10.500Z,99.90
2017-10-18T01:43:38.088Z,99.90
2017-10-18T01:46:05.621Z,99.90
2017-10-18T01:48:33.190Z,99.90
2017-10-18T01:51:00.749Z,99.90
2017-10-18T01:53:28.295Z,99.90
2017-10-18T01:55:55.867Z,99.90
2017-10-18T01:58:23.400Z,99.90
2017-10-18T02:00:51.748Z,99.90
2017-10-18T02:03:19.286Z,99.90
2017-10-18T02:05:46.816Z,99.90
2017-10-18T02:08:14.396Z,99.90
2017-10-18T02:10:41.934Z,99.90
2017-10-18T02:13:09.512Z,99.90
2017-10-18T02:15:37.053Z,99.90
2017-10-18T02:18:04.593Z,99.90
2017-10-18T02:20:32.939Z,99.90
2017-10-18T02:23:00.475Z,99.90
2017-10-18T02:25:28.072Z,99.90
2017-10-18T02:27:55.609Z,99.90
2017-10-18T02:30:23.160Z,99.90
2017-10-18T02:32:50.728Z,99.90
2017-10-18T02:35:18.262Z,99.90
2017-10-18T02:37:45.860Z,99.90
2017-10-18T02:40:13.407Z,99.90
2017-10-18T02:42:40.961Z,99.90
2017-10-18T02:45:08.522Z,99.90
2017-10-18T02:47:36.079Z,99.90
2017-10-18T02:50:03.692Z,99.90
2017-10-18T02:52:31.249Z,99.90
2017-10-18T02:54:58.795Z,99.90
2017-10-18T02:57:26.366Z,99.90
2017-10-18T02:59:53.915Z,99.90
2017-10-18T03:02:21.491Z,99.90
2017-10-18T03:04:49.798Z,99.90
2017-10-18T03:07:17.341Z,99.90
2017-10-18T03:09:44.898Z,99.90
2017-10-18T03:12:12.452Z,99.90
2017-10-18T03:14:40.013Z,99.90
2017-10-18T03:17:07.549Z,99.90
2017-10-18T03:19:35.091Z,99.90
2017-10-18T03:22:02.669Z,99.90
2017-10-18T03:24:30.197Z,99.90
2017-10-18T03:26:58.542Z,99.90
2017-10-18T03:29:26.069Z,99.90
2017-10-18T03:31:53.600Z,99.90
2017-10-18T03:34:21.970Z,99.90
2017-10-18T03:36:49.501Z,99.90
2017-10-18T03:39:17.111Z,99.90
2017-10-18T03:41:45.426Z,99.90
2017-10-18T03:44:12.962Z,99.90
2017-10-18T03:46:41.293Z,99.90
2017-10-18T03:49:08.838Z,99.90
2017-10-18T03:51:36.423Z,99.90
2017-10-18T03:54:03.962Z,99.90
2017-10-18T03:56:31.518Z,99.90
2017-10-18T03:58:59.103Z,99.90
2017-10-18T04:01:26.662Z,99.90
2017-10-18T04:03:54.237Z,99.90
2017-10-18T04:06:21.814Z,99.90
2017-10-18T04:08:49.359Z,99.90
2017-10-18T04:11:16.934Z,99.90
2017-10-18T04:13:44.472Z,99.90
2017-10-18T04:16:12.058Z,99.90
2017-10-18T04:18:39.612Z,99.90
2017-10-18T04:21:07.155Z,99.90
2017-10-18T04:23:34.723Z,99.90
2017-10-18T04:26:02.258Z,99.90
2017-10-18T04:28:29.838Z,99.90
2017-10-18T04:30:57.378Z,99.90
2017-10-18T04:33:24.919Z,99.90
2017-10-18T04:35:52.504Z,99.90
2017-10-18T04:38:20.069Z,99.90
2017-10-18T04:40:47.638Z,99.90
2017-10-18T04:43:15.174Z,99.90
2017-10-18T04:45:42.738Z,99.90
2017-10-18T04:48:10.302Z,99.90
2017-10-18T04:50:37.842Z,99.90
2017-10-18T04:53:06.177Z,99.90
2017-10-18T04:55:34.471Z,99.90
2017-10-18T04:58:02.099Z,99.90
2017-10-18T05:00:29.667Z,99.90
2017-10-18T05:02:57.197Z,99.90
2017-10-18T05:05:24.777Z,99.90
2017-10-18T05:07:52.322Z,99.90
2017-10-18T05:10:19.860Z,99.90
2017-10-18T05:12:48.200Z,99.90
2017-10-18T05:15:15.736Z,99.90
2017-10-18T05:17:43.295Z,99.90
2017-10-18T05:20:10.841Z,99.90
2017-10-18T05:22:38.406Z,99.90
2017-10-18T05:25:06.709Z,99.90
2017-10-18T05:27:34.300Z,99.90
2017-10-18T05:30:01.844Z,99.90
2017-10-18T05:32:29.378Z,99.90
2017-10-18T05:34:56.941Z,99.90
2017-10-18T05:37:24.481Z,99.90
2017-10-18T05:39:52.819Z,99.90
2017-10-18T05:42:20.373Z,99.90
2017-10-18T05:44:47.952Z,99.90
2017-10-18T05:47:15.508Z,99.90
2017-10-18T05:49:43.220Z,99.90
2017-10-18T05:52:10.808Z,99.90
2017-10-18T05:54:38.397Z,99.90
2017-10-18T05:57:06.844Z,99.90
2017-10-18T05:59:34.395Z,99.90
2017-10-18T06:02:02.709Z,99.90
2017-10-18T06:04:30.264Z,99.90
2017-10-18T06:06:57.868Z,99.90
2017-10-18T06:09:25.408Z,99.90
2017-10-18T06:11:53.008Z,99.90
2017-10-18T06:14:21.328Z,99.90
2017-10-18T06:16:48.858Z,99.90
2017-10-18T06:19:17.203Z,99.90
2017-10-18T06:21:44.752Z,99.90
2017-10-18T06:24:12.314Z,99.90
2017-10-18T06:26:39.876Z,99.90
2017-10-18T06:29:07.436Z,99.90
2017-10-18T06:31:35.010Z,99.90
2017-10-18T06:34:02.584Z,99.90
2017-10-18T06:36:30.157Z,99.90
2017-10-18T06:38:58.461Z,99.90
2017-10-18T06:41:26.017Z,99.90
2017-10-18T06:43:53.585Z,99.90
2017-10-18T06:46:21.151Z,99.90
2017-10-18T06:48:48.741Z,99.90
2017-10-18T06:51:17.082Z,99.90
2017-10-18T06:53:44.679Z,99.90
2017-10-18T06:56:12.242Z,99.90
2017-10-18T06:58:39.814Z,99.90
2017-10-18T07:01:07.420Z,99.90
2017-10-18T07:03:35.754Z,99.90
2017-10-18T07:06:03.346Z,99.90
2017-10-18T07:08:30.918Z,99.90
2017-10-18T07:10:59.255Z,99.90
2017-10-18T07:13:26.839Z,99.90
2017-10-18T07:15:54.404Z,99.90
2017-10-18T07:18:22.010Z,99.90
2017-10-18T07:20:49.584Z,99.90
2017-10-18T07:23:17.129Z,99.90
2017-10-18T07:25:44.699Z,99.90
2017-10-18T07:28:12.250Z,99.90
2017-10-18T07:30:39.827Z,99.90
2017-10-18T07:33:09.026Z,99.90
2017-10-18T07:35:36.592Z,99.90
2017-10-18T07:38:04.144Z,99.90
2017-10-18T07:40:31.722Z,99.90
2017-10-18T07:42:59.291Z,99.90
2017-10-18T07:45:26.834Z,99.90
2017-10-18T07:47:54.459Z,99.90
2017-10-18T07:50:22.799Z,99.90
2017-10-18T07:52:50.383Z,99.90
2017-10-18T07:55:17.940Z,99.90
2017-10-18T07:57:45.542Z,99.90
2017-10-18T08:00:13.878Z,99.90
2017-10-18T08:02:41.418Z,99.90
2017-10-18T08:05:08.996Z,99.90
2017-10-18T08:07:36.548Z,99.90
2017-10-18T08:10:04.150Z,99.90
2017-10-18T08:12:31.708Z,99.90
2017-10-18T08:14:59.334Z,99.90
2017-10-18T08:17:26.899Z,99.90
2017-10-18T08:19:54.488Z,99.90
2017-10-18T08:22:22.133Z,99.90
2017-10-18T08:24:49.728Z,99.90
2017-10-18T08:27:17.302Z,99.90
2017-10-18T08:29:45.633Z,99.90
2017-10-18T08:32:13.193Z,99.90
2017-10-18T08:34:40.753Z,99.90
2017-10-18T08:37:08.321Z,99.90
2017-10-18T08:39:35.877Z,99.90
2017-10-18T08:42:03.441Z,99.90
2017-10-18T08:44:30.990Z,99.90
2017-10-18T08:46:58.579Z,99.90
2017-10-18T08:49:26.141Z,99.90
2017-10-18T08:51:53.799Z,99.90
2017-10-18T08:54:21.374Z,99.90
2017-10-18T08:56:48.933Z,99.90
2017-10-18T08:59:16.617Z,99.90
2017-10-18T09:01:44.972Z,99.90
2017-10-18T09:04:13.318Z,99.90
2017-10-18T09:06:40.951Z,99.90
2017-10-18T09:09:08.518Z,99.90
2017-10-18T09:11:36.872Z,99.90
2017-10-18T09:14:04.467Z,99.90
2017-10-18T09:16:32.805Z,99.90
2017-10-18T09:19:00.355Z,99.90
2017-10-18T09:21:27.912Z,99.90
2017-10-18T09:23:55.490Z,99.90
2017-10-18T09:26:23.021Z,99.90
2017-10-18T09:28:50.612Z,99.90
2017-10-18T09:31:18.154Z,99.90
2017-10-18T09:33:45.717Z,99.90
2017-10-18T09:36:13.268Z,99.90
2017-10-18T09:38:40.859Z,99.90
2017-10-18T09:41:08.407Z,99.90
2017-10-18T09:43:35.956Z,99.90
2017-10-18T09:46:03.525Z,99.90
2017-10-18T09:48:31.089Z,99.90
2017-10-18T09:50:58.649Z,99.90
2017-10-18T09:53:26.189Z,99.90
2017-10-18T09:55:53.772Z,99.90
2017-10-18T09:58:21.325Z,99.90
2017-10-18T10:00:48.928Z,99.90
2017-10-18T10:03:16.487Z,99.90
2017-10-18T10:05:44.046Z,99.90
2017-10-18T10:08:11.627Z,99.90
2017-10-18T10:10:39.957Z,99.90
2017-10-18T10:13:07.536Z,99.90
2017-10-18T10:15:35.087Z,99.90
2017-10-18T10:18:02.652Z,99.90
2017-10-18T10:20:30.210Z,99.90
2017-10-18T10:22:57.759Z,99.90
2017-10-18T10:25:25.321Z,99.90
2017-10-18T10:27:52.850Z,99.90
2017-10-18T10:30:21.182Z,99.90
2017-10-18T10:32:48.719Z,99.90
2017-10-18T10:35:16.303Z,99.90
2017-10-18T10:37:43.877Z,99.90
2017-10-18T10:40:11.471Z,99.90
2017-10-18T10:42:39.030Z,99.90
2017-10-18T10:45:06.584Z,99.90
2017-10-18T10:47:34.157Z,99.90
2017-10-18T10:50:01.711Z,99.90
2017-10-18T10:52:29.299Z,99.90
2017-10-18T10:54:57.609Z,99.90
2017-10-18T10:57:25.164Z,99.90
2017-10-18T10:59:52.739Z,99.90
2017-10-18T11:02:20.288Z,99.90
2017-10-18T11:04:47.864Z,99.90
2017-10-18T11:07:15.476Z,99.90
2017-10-18T11:09:43.832Z,99.90
2017-10-18T11:12:11.415Z,99.90
2017-10-18T11:14:39.741Z,99.90
2017-10-18T11:17:08.235Z,99.90
2017-10-18T11:19:35.828Z,99.90
2017-10-18T11:22:03.378Z,99.90
2017-10-18T11:24:30.932Z,99.90
2017-10-18T11:26:59.258Z,99.90
2017-10-18T11:29:27.597Z,99.90
2017-10-18T11:31:55.163Z,99.90
2017-10-18T11:34:22.724Z,99.90
2017-10-18T11:36:51.065Z,99.90
2017-10-18T11:39:18.622Z,99.90
2017-10-18T11:41:46.223Z,99.90
2017-10-18T11:44:13.768Z,99.90
2017-10-18T11:46:41.362Z,99.90
2017-10-18T11:49:08.925Z,99.90
2017-10-18T11:51:36.465Z,99.90
2017-10-18T11:54:04.029Z,99.90
2017-10-18T11:56:31.567Z,99.90
2017-10-18T11:58:59.124Z,99.90
2017-10-18T12:01:26.785Z,99.90
2017-10-18T12:03:54.574Z,99.90
2017-10-18T12:06:22.126Z,99.90
2017-10-18T12:08:49.691Z,99.90
2017-10-18T12:11:17.234Z,99.90
2017-10-18T12:13:44.813Z,99.90
2017-10-18T12:16:12.448Z,99.90
2017-10-18T12:18:40.747Z,99.90
2017-10-18T12:21:08.312Z,99.90
2017-10-18T12:23:35.850Z,99.90
2017-10-18T12:26:03.434Z,99.90
2017-10-18T12:28:30.976Z,99.90
2017-10-18T12:30:58.576Z,99.90
2017-10-18T12:33:26.110Z,99.90
2017-10-18T12:35:53.680Z,99.90
2017-10-18T12:38:21.219Z,99.90
2017-10-18T12:40:49.594Z,99.40
2017-10-18T12:43:17.912Z,99.80
2017-10-18T12:45:45.477Z,99.80
2017-10-18T12:48:13.061Z,99.70
2017-10-18T12:50:40.636Z,99.20
2017-10-18T12:53:08.237Z,99.50
2017-10-18T12:55:35.829Z,99.10
2017-10-18T12:58:03.430Z,99.50
2017-10-18T13:00:30.984Z,99.80
2017-10-18T13:02:58.599Z,99.10
2017-10-18T13:05:26.222Z,99.30
2017-10-18T13:07:53.781Z,99.00
2017-10-18T13:10:21.375Z,98.60
2017-10-18T13:12:48.931Z,98.30
2017-10-18T13:15:17.280Z,98.40
2017-10-18T13:17:44.850Z,98.40
2017-10-18T13:20:12.396Z,98.40
2017-10-18T13:22:39.953Z,98.40
2017-10-18T13:25:07.485Z,97.70
2017-10-18T13:27:35.117Z,97.40
2017-10-18T13:30:03.422Z,96.80
2017-10-18T13:32:30.976Z,96.80
2017-10-18T13:34:58.537Z,97.50
2017-10-18T13:37:26.084Z,97.30
2017-10-18T13:39:54.436Z,97.50
2017-10-18T13:42:21.985Z,97.50
2017-10-18T13:44:49.511Z,97.60
2017-10-18T13:47:17.085Z,97.80
2017-10-18T13:49:44.637Z,97.50
2017-10-18T13:52:12.206Z,96.90
2017-10-18T13:54:39.758Z,97.80
2017-10-18T13:57:07.287Z,99.00
2017-10-18T13:59:35.605Z,99.50
2017-10-18T14:02:03.145Z,99.50
2017-10-18T14:04:30.705Z,98.90
2017-10-18T14:06:58.269Z,98.80
2017-10-18T14:09:25.817Z,99.00
2017-10-18T14:11:54.138Z,99.70
2017-10-18T14:14:21.665Z,99.70
2017-10-18T14:16:49.237Z,99.90
2017-10-18T14:19:16.772Z,98.20
2017-10-18T14:21:45.066Z,98.40
2017-10-18T14:24:13.403Z,97.00
2017-10-18T14:26:40.931Z,97.00
2017-10-18T14:29:08.504Z,96.90
2017-10-18T14:31:36.059Z,98.50
2017-10-18T14:34:03.625Z,98.80
2017-10-18T14:36:31.168Z,99.30
2017-10-18T14:38:58.702Z,98.80
2017-10-18T14:41:27.041Z,99.00
2017-10-18T14:43:54.586Z,98.90
2017-10-18T14:46:22.172Z,99.90
2017-10-18T14:48:49.712Z,99.90
2017-10-18T14:51:17.269Z,99.90
2017-10-18T14:53:44.826Z,99.90
2017-10-18T14:56:12.382Z,99.90
2017-10-18T14:58:39.933Z,99.90
2017-10-18T15:01:07.475Z,99.90
2017-10-18T15:03:35.808Z,99.90
2017-10-18T15:06:03.364Z,99.90
2017-10-18T15:08:30.940Z,99.90
2017-10-18T15:10:58.465Z,99.90
2017-10-18T15:13:26.016Z,99.90
2017-10-18T15:15:54.328Z,99.90
2017-10-18T15:18:21.903Z,99.90
2017-10-18T15:20:49.446Z,99.90
2017-10-18T15:23:16.998Z,99.90
2017-10-18T15:25:44.525Z,99.90
2017-10-18T15:28:12.867Z,99.90
2017-10-18T15:30:40.420Z,99.90
2017-10-18T15:33:07.957Z,99.90
2017-10-18T15:35:35.536Z,99.90
2017-10-18T15:38:03.081Z,99.90
2017-10-18T15:40:30.641Z,99.90
2017-10-18T15:42:58.190Z,99.90
2017-10-18T15:45:25.745Z,99.90
2017-10-18T15:47:54.057Z,99.90
2017-10-18T15:50:21.606Z,99.90
2017-10-18T15:52:49.145Z,99.90
2017-10-18T15:55:17.465Z,99.90
2017-10-18T15:57:45.020Z,99.90
2017-10-18T16:00:12.586Z,99.90
2017-10-18T16:02:40.123Z,99.90
2017-10-18T16:05:08.464Z,99.90
2017-10-18T16:07:35.990Z,99.90
2017-10-18T16:10:03.529Z,99.90
2017-10-18T16:12:31.137Z,99.90
2017-10-18T16:14:58.685Z,99.90
2017-10-18T16:17:27.034Z,99.90
2017-10-18T16:19:54.569Z,99.90
2017-10-18T16:22:22.115Z,99.90
2017-10-18T16:24:49.678Z,99.90
2017-10-18T16:27:17.235Z,99.90
2017-10-18T16:29:44.820Z,99.90
2017-10-18T16:32:13.142Z,99.90
2017-10-18T16:34:40.721Z,99.90
2017-10-18T16:37:08.325Z,99.90
2017-10-18T16:39:36.620Z,99.90
2017-10-18T16:42:04.199Z,99.90
2017-10-18T16:44:31.769Z,99.90
2017-10-18T16:46:59.355Z,99.90
2017-10-18T16:49:26.926Z,99.90
2017-10-18T16:51:54.515Z,99.90
2017-10-18T16:54:22.852Z,99.90
2017-10-18T16:56:50.440Z,99.90
2017-10-18T16:59:18.024Z,99.90
2017-10-18T17:01:46.382Z,99.90
2017-10-18T17:04:13.952Z,99.90
2017-10-18T17:06:42.312Z,99.90
2017-10-18T17:09:09.865Z,99.90
2017-10-18T17:11:37.403Z,99.90
2017-10-18T17:14:05.006Z,99.90
2017-10-18T17:16:32.558Z,99.90
2017-10-18T17:19:00.156Z,99.90
2017-10-18T17:21:28.502Z,99.90
2017-10-18T17:23:56.082Z,99.90
2017-10-18T17:26:23.671Z,99.90
2017-10-18T17:28:52.020Z,99.90
2017-10-18T17:31:19.583Z,99.90
2017-10-18T17:33:47.171Z,99.90
2017-10-18T17:36:15.509Z,99.90
2017-10-18T17:38:43.073Z,99.90
2017-10-18T17:41:10.675Z,99.90
2017-10-18T17:43:38.990Z,99.90
2017-10-18T17:46:06.584Z,99.90
2017-10-18T17:48:34.138Z,99.90
2017-10-18T17:51:01.712Z,99.90
2017-10-18T17:53:29.316Z,99.90
2017-10-18T17:55:56.868Z,99.90
2017-10-18T17:58:25.226Z,99.90
2017-10-18T18:00:53.548Z,99.90
2017-10-18T18:03:21.109Z,99.90
2017-10-18T18:05:48.685Z,99.90
2017-10-18T18:08:16.250Z,99.90
2017-10-18T18:10:43.860Z,99.90
2017-10-18T18:13:12.173Z,99.90
2017-10-18T18:15:39.721Z,99.90
2017-10-18T18:18:07.337Z,99.90
2017-10-18T18:20:34.871Z,99.90
2017-10-18T18:23:02.456Z,99.90
2017-10-18T18:25:30.013Z,99.90
2017-10-18T18:27:57.604Z,99.90
2017-10-18T18:30:25.177Z,99.90
2017-10-18T18:32:53.525Z,99.90
2017-10-18T18:35:21.137Z,99.90
2017-10-18T18:37:49.467Z,99.90
2017-10-18T18:40:17.069Z,99.90
2017-10-18T18:42:45.390Z,99.90
2017-10-18T18:45:12.928Z,99.90
2017-10-18T18:47:40.519Z,99.90
2017-10-18T18:50:08.093Z,99.90
2017-10-18T18:52:35.689Z,99.90
2017-10-18T18:55:03.994Z,99.90
2017-10-18T18:57:31.575Z,99.90
2017-10-18T18:59:59.166Z,99.90
2017-10-18T19:02:26.736Z,99.90
2017-10-18T19:04:54.337Z,99.90
2017-10-18T19:07:22.666Z,99.90
2017-10-18T19:09:50.256Z,99.90
2017-10-18T19:12:18.632Z,99.90
2017-10-18T19:14:46.190Z,99.90
2017-10-18T19:17:13.776Z,99.90
2017-10-18T19:19:42.089Z,99.90
2017-10-18T19:22:09.648Z,99.90
2017-10-18T19:24:37.222Z,99.90
2017-10-18T19:27:04.787Z,99.90
2017-10-18T19:29:32.377Z,99.90
2017-10-18T19:31:59.939Z,99.90
2017-10-18T19:34:28.730Z,99.90
2017-10-18T19:36:56.289Z,99.90
2017-10-18T19:39:23.850Z,99.90
2017-10-18T19:41:51.418Z,99.90
2017-10-18T19:44:18.961Z,99.90
2017-10-18T19:46:46.498Z,99.90
2017-10-18T19:49:14.084Z,99.90
2017-10-18T19:51:41.688Z,99.90
2017-10-18T19:54:10.029Z,99.90
2017-10-18T19:56:37.609Z,99.90
2017-10-18T19:59:05.204Z,99.90
2017-10-18T20:01:33.514Z,99.90
2017-10-18T20:04:01.107Z,99.90
2017-10-18T20:06:28.701Z,99.90
2017-10-18T20:08:57.044Z,99.90
2017-10-18T20:11:24.591Z,99.90
2017-10-18T20:13:52.135Z,99.90
2017-10-18T20:16:19.712Z,99.90
2017-10-18T20:18:47.268Z,99.90
2017-10-18T20:21:14.833Z,99.90
2017-10-18T20:23:42.378Z,99.90
2017-10-18T20:26:09.975Z,99.90
2017-10-18T20:28:37.527Z,99.90
2017-10-18T20:31:05.866Z,99.90
2017-10-18T20:33:33.459Z,99.90
2017-10-18T20:36:00.993Z,99.90
2017-10-18T20:38:28.583Z,99.90
2017-10-18T20:40:56.137Z,99.90
2017-10-18T20:43:23.694Z,99.90
2017-10-18T20:45:51.252Z,99.90
2017-10-18T20:48:18.827Z,99.90
2017-10-18T20:50:46.414Z,99.90
2017-10-18T20:53:13.984Z,99.90
2017-10-18T20:55:41.548Z,99.90
2017-10-18T20:58:09.132Z,99.90
2017-10-18T21:00:37.440Z,99.90
2017-10-18T21:03:05.001Z,99.90
2017-10-18T21:05:32.560Z,99.90
2017-10-18T21:08:00.152Z,99.90
2017-10-18T21:10:27.689Z,99.90
2017-10-18T21:12:55.279Z,99.90
2017-10-18T21:15:22.844Z,99.90
2017-10-18T21:17:50.385Z,99.90
2017-10-18T21:20:17.948Z,99.90
2017-10-18T21:22:45.485Z,99.90
2017-10-18T21:25:13.050Z,99.90
2017-10-18T21:27:40.600Z,99.90
2017-10-18T21:30:08.941Z,99.90
2017-10-18T21:32:36.497Z,99.90
2017-10-18T21:35:04.056Z,99.90
2017-10-18T21:37:31.637Z,99.90
2017-10-18T21:39:59.178Z,99.90
2017-10-18T21:42:26.738Z,99.90
2017-10-18T21:44:54.273Z,99.90
2017-10-18T21:47:21.843Z,99.90
2017-10-18T21:49:49.383Z,99.90
2017-10-18T21:52:16.968Z,99.90
2017-10-18T21:54:44.536Z,99.90
2017-10-18T21:57:12.096Z,99.90
2017-10-18T21:59:39.653Z,99.90
2017-10-18T22:02:07.204Z,99.90
2017-10-18T22:04:34.777Z,99.90
2017-10-18T22:07:02.342Z,99.90
2017-10-18T22:09:29.926Z,99.90
2017-10-18T22:11:57.488Z,99.90
2017-10-18T22:14:25.034Z,99.90
2017-10-18T22:16:52.597Z,99.90
2017-10-18T22:19:20.137Z,99.90
2017-10-18T22:21:47.706Z,99.90
2017-10-18T22:24:15.275Z,99.90
2017-10-18T22:26:42.856Z,99.90
2017-10-18T22:29:10.404Z,99.90
2017-10-18T22:31:37.982Z,99.90
2017-10-18T22:34:05.521Z,99.90
2017-10-18T22:36:33.113Z,99.90
2017-10-18T22:39:00.662Z,99.90
2017-10-18T22:41:28.221Z,99.90
2017-10-18T22:43:55.808Z,99.90
2017-10-18T22:46:23.356Z,99.90
2017-10-18T22:48:50.917Z,99.90
2017-10-18T22:51:18.471Z,99.90
2017-10-18T22:53:46.029Z,99.90
2017-10-18T22:56:13.588Z,99.90
2017-10-18T22:58:41.167Z,99.90
2017-10-18T23:01:08.723Z,99.90
2017-10-18T23:03:36.278Z,99.90
2017-10-18T23:06:03.880Z,99.90
2017-10-18T23:08:32.211Z,99.90
2017-10-18T23:10:59.796Z,99.90
2017-10-18T23:13:27.352Z,99.90
2017-10-18T23:15:54.912Z,99.90
2017-10-18T23:18:22.491Z,99.90
2017-10-18T23:20:50.049Z,99.90
2017-10-18T23:23:17.655Z,99.90
2017-10-18T23:25:45.221Z,99.90
2017-10-18T23:28:12.781Z,99.90
2017-10-18T23:30:40.353Z,99.90
2017-10-18T23:33:07.906Z,99.90
2017-10-18T23:35:35.492Z,99.90
2017-10-18T23:38:03.049Z,99.90
2017-10-18T23:40:30.613Z,99.90
2017-10-18T23:42:58.194Z,99.90
2017-10-18T23:45:25.780Z,99.90
2017-10-18T23:47:53.338Z,99.90
2017-10-18T23:50:20.890Z,99.90
2017-10-18T23:52:54.514Z,99.90
2017-10-18T23:55:22.848Z,99.90
2017-10-18T23:57:50.436Z,99.90
